<?xml version="1.0" encoding="UTF-8" standalone="no" ?>
<gpx xmlns="http://www.topografix.com/GPX/1/1" xmlns:xsi="http://www.w3.org/2001/XMLSchema-instance" xsi:schemaLocation="http://www.topografix.com/GPX/1/1 http://www.topografix.com/GPX/1/1/gpx.xsd" version="1.1" creator="VisuGPX - https://www.visugpx.com">
  <metadata>
    <name>Edirne-Sarajevo</name>
  </metadata>
  <trk>
    <name><![CDATA[Tour d'Europe: étape 618]]></name>
    <extensions>
      <line xmlns="http://www.topografix.com/GPX/gpx_style/0/2">
        <color>FF0000</color>
        <width>4</width>
      </line>
    </extensions>
    <trkseg>
      <trkpt lat="42.51111" lon="24.18241">
        <ele>582.730514</ele>
        <time>2022-03-08T07:07:22.544Z</time>
      </trkpt>
      <trkpt lat="42.51079" lon="24.1818">
        <ele>583.950009</ele>
        <time>2022-03-08T07:16:55.679Z</time>
      </trkpt>
      <trkpt lat="42.50889" lon="24.18053">
        <ele>586.598289</ele>
        <time>2022-03-08T07:17:41.690Z</time>
      </trkpt>
      <trkpt lat="42.50713" lon="24.17886">
        <ele>587.585714</ele>
        <time>2022-03-08T07:18:42.717Z</time>
      </trkpt>
      <trkpt lat="42.50672" lon="24.17641">
        <ele>590.059681</ele>
        <time>2022-03-08T07:19:53.686Z</time>
      </trkpt>
      <trkpt lat="42.50535" lon="24.17443">
        <ele>598.261319</ele>
        <time>2022-03-08T07:21:04.680Z</time>
      </trkpt>
      <trkpt lat="42.50404" lon="24.17245">
        <ele>588.602159</ele>
        <time>2022-03-08T07:21:55.686Z</time>
      </trkpt>
      <trkpt lat="42.50404" lon="24.16963">
        <ele>591.222957</ele>
        <time>2022-03-08T07:23:03.704Z</time>
      </trkpt>
      <trkpt lat="42.50452" lon="24.16679">
        <ele>593.643227</ele>
        <time>2022-03-08T07:24:23.712Z</time>
      </trkpt>
      <trkpt lat="42.50495" lon="24.16422">
        <ele>598.773117</ele>
        <time>2022-03-08T07:25:39.693Z</time>
      </trkpt>
      <trkpt lat="42.5056" lon="24.16167">
        <ele>605.477515</ele>
        <time>2022-03-08T07:27:17.696Z</time>
      </trkpt>
      <trkpt lat="42.50588" lon="24.15921">
        <ele>607.615321</ele>
        <time>2022-03-08T07:28:39.753Z</time>
      </trkpt>
      <trkpt lat="42.5063" lon="24.15654">
        <ele>609.008012</ele>
        <time>2022-03-08T07:30:01.702Z</time>
      </trkpt>
      <trkpt lat="42.50696" lon="24.15416">
        <ele>616.571997</ele>
        <time>2022-03-08T07:31:39.694Z</time>
      </trkpt>
      <trkpt lat="42.5075" lon="24.15167">
        <ele>626.451482</ele>
        <time>2022-03-08T07:33:43.697Z</time>
      </trkpt>
      <trkpt lat="42.50821" lon="24.14937">
        <ele>637.096807</ele>
        <time>2022-03-08T07:35:30.709Z</time>
      </trkpt>
      <trkpt lat="42.50815" lon="24.14686">
        <ele>651.865087</ele>
        <time>2022-03-08T07:37:23.699Z</time>
      </trkpt>
      <trkpt lat="42.50799" lon="24.14426">
        <ele>661.982578</ele>
        <time>2022-03-08T07:39:30.693Z</time>
      </trkpt>
      <trkpt lat="42.50874" lon="24.14202">
        <ele>667.847355</ele>
        <time>2022-03-08T07:41:05.703Z</time>
      </trkpt>
      <trkpt lat="42.50956" lon="24.13957">
        <ele>672.629091</ele>
        <time>2022-03-08T07:42:35.713Z</time>
      </trkpt>
      <trkpt lat="42.50952" lon="24.13687">
        <ele>680.875797</ele>
        <time>2022-03-08T07:43:56.703Z</time>
      </trkpt>
      <trkpt lat="42.50888" lon="24.13432">
        <ele>687.387137</ele>
        <time>2022-03-08T07:45:27.724Z</time>
      </trkpt>
      <trkpt lat="42.50885" lon="24.13175">
        <ele>684.659652</ele>
        <time>2022-03-08T07:46:55.708Z</time>
      </trkpt>
      <trkpt lat="42.50965" lon="24.12905">
        <ele>685.187766</ele>
        <time>2022-03-08T07:47:48.698Z</time>
      </trkpt>
      <trkpt lat="42.50996" lon="24.12598">
        <ele>683.074838</ele>
        <time>2022-03-08T07:48:26.721Z</time>
      </trkpt>
      <trkpt lat="42.51038" lon="24.12346">
        <ele>671.986962</ele>
        <time>2022-03-08T07:48:47.735Z</time>
      </trkpt>
      <trkpt lat="42.51112" lon="24.12082">
        <ele>654.901278</ele>
        <time>2022-03-08T07:49:10.703Z</time>
      </trkpt>
      <trkpt lat="42.5118" lon="24.11789">
        <ele>635.790367</ele>
        <time>2022-03-08T07:49:38.712Z</time>
      </trkpt>
      <trkpt lat="42.51229" lon="24.11529">
        <ele>620.31058</ele>
        <time>2022-03-08T07:49:59.752Z</time>
      </trkpt>
      <trkpt lat="42.51253" lon="24.11219">
        <ele>609.768578</ele>
        <time>2022-03-08T07:50:47.720Z</time>
      </trkpt>
      <trkpt lat="42.51136" lon="24.10955">
        <ele>615.393412</ele>
        <time>2022-03-08T07:51:33.697Z</time>
      </trkpt>
      <trkpt lat="42.50997" lon="24.10686">
        <ele>607.023746</ele>
        <time>2022-03-08T07:52:11.717Z</time>
      </trkpt>
      <trkpt lat="42.51147" lon="24.10469">
        <ele>604.023329</ele>
        <time>2022-03-08T07:53:01.720Z</time>
      </trkpt>
      <trkpt lat="42.51256" lon="24.10259">
        <ele>620.811871</ele>
        <time>2022-03-08T07:54:37.705Z</time>
      </trkpt>
      <trkpt lat="42.51334" lon="24.10036">
        <ele>636.708499</ele>
        <time>2022-03-08T07:56:55.703Z</time>
      </trkpt>
      <trkpt lat="42.51433" lon="24.09819">
        <ele>647.115496</ele>
        <time>2022-03-08T07:59:47.704Z</time>
      </trkpt>
      <trkpt lat="42.51524" lon="24.0961">
        <ele>664.932429</ele>
        <time>2022-03-08T08:02:28.698Z</time>
      </trkpt>
      <trkpt lat="42.51547" lon="24.09358">
        <ele>682.813647</ele>
        <time>2022-03-08T08:05:15.689Z</time>
      </trkpt>
      <trkpt lat="42.51541" lon="24.09106">
        <ele>691.654741</ele>
        <time>2022-03-08T08:07:31.721Z</time>
      </trkpt>
      <trkpt lat="42.51557" lon="24.08847">
        <ele>695.629701</ele>
        <time>2022-03-08T08:09:38.712Z</time>
      </trkpt>
      <trkpt lat="42.51604" lon="24.08622">
        <ele>707.717384</ele>
        <time>2022-03-08T08:11:44.712Z</time>
      </trkpt>
      <trkpt lat="42.51681" lon="24.08401">
        <ele>721.163947</ele>
        <time>2022-03-08T08:13:47.719Z</time>
      </trkpt>
      <trkpt lat="42.51571" lon="24.0819">
        <ele>727.281839</ele>
        <time>2022-03-08T08:15:09.740Z</time>
      </trkpt>
      <trkpt lat="42.51565" lon="24.07885">
        <ele>721.529228</ele>
        <time>2022-03-08T08:15:47.711Z</time>
      </trkpt>
      <trkpt lat="42.51648" lon="24.076">
        <ele>704.25713</ele>
        <time>2022-03-08T08:16:27.724Z</time>
      </trkpt>
      <trkpt lat="42.51725" lon="24.07337">
        <ele>693.323248</ele>
        <time>2022-03-08T08:17:07.701Z</time>
      </trkpt>
      <trkpt lat="42.51852" lon="24.07093">
        <ele>680.812509</ele>
        <time>2022-03-08T08:17:49.762Z</time>
      </trkpt>
      <trkpt lat="42.51745" lon="24.06944">
        <ele>669.159458</ele>
        <time>2022-03-08T08:18:28.746Z</time>
      </trkpt>
      <trkpt lat="42.51571" lon="24.0673">
        <ele>651.463271</ele>
        <time>2022-03-08T08:19:08.706Z</time>
      </trkpt>
      <trkpt lat="42.51414" lon="24.06458">
        <ele>644.815447</ele>
        <time>2022-03-08T08:19:46.724Z</time>
      </trkpt>
      <trkpt lat="42.51265" lon="24.06183">
        <ele>634.846036</ele>
        <time>2022-03-08T08:20:26.696Z</time>
      </trkpt>
      <trkpt lat="42.51152" lon="24.05922">
        <ele>622.600971</ele>
        <time>2022-03-08T08:21:04.714Z</time>
      </trkpt>
      <trkpt lat="42.51123" lon="24.0559">
        <ele>608.905861</ele>
        <time>2022-03-08T08:21:42.703Z</time>
      </trkpt>
      <trkpt lat="42.51117" lon="24.05274">
        <ele>595.364707</ele>
        <time>2022-03-08T08:22:22.713Z</time>
      </trkpt>
      <trkpt lat="42.51131" lon="24.0494">
        <ele>586.426435</ele>
        <time>2022-03-08T08:23:00.701Z</time>
      </trkpt>
      <trkpt lat="42.50999" lon="24.04709">
        <ele>575.996527</ele>
        <time>2022-03-08T08:23:41.722Z</time>
      </trkpt>
      <trkpt lat="42.50885" lon="24.0447">
        <ele>570.327305</ele>
        <time>2022-03-08T08:24:19.724Z</time>
      </trkpt>
      <trkpt lat="42.50724" lon="24.04258">
        <ele>575.866175</ele>
        <time>2022-03-08T08:25:13.700Z</time>
      </trkpt>
      <trkpt lat="42.50586" lon="24.04078">
        <ele>574.34152</ele>
        <time>2022-03-08T08:26:18.726Z</time>
      </trkpt>
      <trkpt lat="42.50559" lon="24.03767">
        <ele>562.053794</ele>
        <time>2022-03-08T08:27:04.728Z</time>
      </trkpt>
      <trkpt lat="42.50665" lon="24.0341">
        <ele>550.039766</ele>
        <time>2022-03-08T08:27:42.724Z</time>
      </trkpt>
      <trkpt lat="42.5073" lon="24.03015">
        <ele>543.245258</ele>
        <time>2022-03-08T08:28:21.715Z</time>
      </trkpt>
      <trkpt lat="42.50617" lon="24.02751">
        <ele>531.741804</ele>
        <time>2022-03-08T08:29:07.714Z</time>
      </trkpt>
      <trkpt lat="42.5055" lon="24.02483">
        <ele>526.301704</ele>
        <time>2022-03-08T08:29:48.699Z</time>
      </trkpt>
      <trkpt lat="42.50496" lon="24.02195">
        <ele>529.345869</ele>
        <time>2022-03-08T08:30:39.760Z</time>
      </trkpt>
      <trkpt lat="42.50412" lon="24.01899">
        <ele>519.602949</ele>
        <time>2022-03-08T08:31:17.759Z</time>
      </trkpt>
      <trkpt lat="42.50388" lon="24.01549">
        <ele>508.366961</ele>
        <time>2022-03-08T08:31:57.710Z</time>
      </trkpt>
      <trkpt lat="42.50389" lon="24.01253">
        <ele>499.637627</ele>
        <time>2022-03-08T08:32:49.724Z</time>
      </trkpt>
      <trkpt lat="42.50417" lon="24.00905">
        <ele>494.696839</ele>
        <time>2022-03-08T08:33:29.710Z</time>
      </trkpt>
      <trkpt lat="42.50388" lon="24.00629">
        <ele>489.172579</ele>
        <time>2022-03-08T08:34:24.714Z</time>
      </trkpt>
      <trkpt lat="42.5035" lon="24.00325">
        <ele>478.726779</ele>
        <time>2022-03-08T08:35:08.694Z</time>
      </trkpt>
      <trkpt lat="42.50277" lon="24.00066">
        <ele>470.239118</ele>
        <time>2022-03-08T08:35:54.710Z</time>
      </trkpt>
      <trkpt lat="42.50441" lon="23.99987">
        <ele>465.376027</ele>
        <time>2022-03-08T08:37:11.706Z</time>
      </trkpt>
      <trkpt lat="42.50645" lon="23.99935">
        <ele>460.407252</ele>
        <time>2022-03-08T08:38:19.710Z</time>
      </trkpt>
      <trkpt lat="42.50843" lon="23.9996">
        <ele>458.682142</ele>
        <time>2022-03-08T08:39:16.693Z</time>
      </trkpt>
      <trkpt lat="42.51046" lon="24.00044">
        <ele>455.19043</ele>
        <time>2022-03-08T08:40:15.714Z</time>
      </trkpt>
      <trkpt lat="42.51234" lon="24.00136">
        <ele>446.743441</ele>
        <time>2022-03-08T08:41:12.710Z</time>
      </trkpt>
      <trkpt lat="42.51442" lon="24.00221">
        <ele>451.922472</ele>
        <time>2022-03-08T08:42:15.716Z</time>
      </trkpt>
      <trkpt lat="42.51647" lon="24.00151">
        <ele>460.858274</ele>
        <time>2022-03-08T08:43:12.718Z</time>
      </trkpt>
      <trkpt lat="42.51788" lon="23.99952">
        <ele>460.838239</ele>
        <time>2022-03-08T08:44:13.704Z</time>
      </trkpt>
      <trkpt lat="42.51992" lon="23.99923">
        <ele>456.578623</ele>
        <time>2022-03-08T08:45:14.710Z</time>
      </trkpt>
      <trkpt lat="42.52125" lon="24.00135">
        <ele>455.741169</ele>
        <time>2022-03-08T08:46:08.710Z</time>
      </trkpt>
      <trkpt lat="42.52279" lon="24.00306">
        <ele>460.196027</ele>
        <time>2022-03-08T08:47:28.716Z</time>
      </trkpt>
      <trkpt lat="42.52464" lon="24.0025">
        <ele>472.086513</ele>
        <time>2022-03-08T08:48:54.714Z</time>
      </trkpt>
      <trkpt lat="42.52613" lon="24.00089">
        <ele>487.219411</ele>
        <time>2022-03-08T08:50:30.719Z</time>
      </trkpt>
      <trkpt lat="42.52759" lon="23.9994">
        <ele>487.196411</ele>
        <time>2022-03-08T08:52:13.715Z</time>
      </trkpt>
      <trkpt lat="42.52941" lon="23.99923">
        <ele>496.736234</ele>
        <time>2022-03-08T08:53:53.722Z</time>
      </trkpt>
      <trkpt lat="42.53106" lon="24.00019">
        <ele>499.187228</ele>
        <time>2022-03-08T08:54:57.711Z</time>
      </trkpt>
      <trkpt lat="42.53182" lon="23.99714">
        <ele>486.281311</ele>
        <time>2022-03-08T08:55:38.713Z</time>
      </trkpt>
      <trkpt lat="42.53384" lon="23.99563">
        <ele>475.543137</ele>
        <time>2022-03-08T08:56:21.721Z</time>
      </trkpt>
      <trkpt lat="42.536" lon="23.99547">
        <ele>474.298575</ele>
        <time>2022-03-08T08:57:20.722Z</time>
      </trkpt>
      <trkpt lat="42.53793" lon="23.99425">
        <ele>484.854511</ele>
        <time>2022-03-08T08:58:21.738Z</time>
      </trkpt>
      <trkpt lat="42.53905" lon="23.99208">
        <ele>491.276488</ele>
        <time>2022-03-08T08:59:18.719Z</time>
      </trkpt>
      <trkpt lat="42.54055" lon="23.98978">
        <ele>486.626557</ele>
        <time>2022-03-08T09:00:18.751Z</time>
      </trkpt>
      <trkpt lat="42.54244" lon="23.98859">
        <ele>476.207753</ele>
        <time>2022-03-08T09:01:16.723Z</time>
      </trkpt>
      <trkpt lat="42.54461" lon="23.98813">
        <ele>487.067376</ele>
        <time>2022-03-08T09:02:14.720Z</time>
      </trkpt>
      <trkpt lat="42.54672" lon="23.98862">
        <ele>480.646946</ele>
        <time>2022-03-08T09:03:12.721Z</time>
      </trkpt>
      <trkpt lat="42.54883" lon="23.98917">
        <ele>472.051118</ele>
        <time>2022-03-08T09:04:12.715Z</time>
      </trkpt>
      <trkpt lat="42.55069" lon="23.9904">
        <ele>477.282014</ele>
        <time>2022-03-08T09:05:12.736Z</time>
      </trkpt>
      <trkpt lat="42.55214" lon="23.9921">
        <ele>484.48183</ele>
        <time>2022-03-08T09:06:19.723Z</time>
      </trkpt>
      <trkpt lat="42.55352" lon="23.993">
        <ele>483.209623</ele>
        <time>2022-03-08T09:07:30.732Z</time>
      </trkpt>
      <trkpt lat="42.55521" lon="23.99153">
        <ele>482.622692</ele>
        <time>2022-03-08T09:08:34.708Z</time>
      </trkpt>
      <trkpt lat="42.55719" lon="23.99129">
        <ele>485.49464</ele>
        <time>2022-03-08T09:09:40.755Z</time>
      </trkpt>
      <trkpt lat="42.55903" lon="23.99078">
        <ele>482.915002</ele>
        <time>2022-03-08T09:10:39.721Z</time>
      </trkpt>
      <trkpt lat="42.56125" lon="23.99027">
        <ele>478.50445</ele>
        <time>2022-03-08T09:11:42.711Z</time>
      </trkpt>
      <trkpt lat="42.56338" lon="23.98971">
        <ele>475.974034</ele>
        <time>2022-03-08T09:12:37.740Z</time>
      </trkpt>
      <trkpt lat="42.56559" lon="23.98952">
        <ele>483.626486</ele>
        <time>2022-03-08T09:13:37.723Z</time>
      </trkpt>
      <trkpt lat="42.5674" lon="23.99097">
        <ele>493.460091</ele>
        <time>2022-03-08T09:14:36.753Z</time>
      </trkpt>
      <trkpt lat="42.56863" lon="23.99286">
        <ele>498.6739</ele>
        <time>2022-03-08T09:15:55.723Z</time>
      </trkpt>
      <trkpt lat="42.56824" lon="23.99563">
        <ele>495.271484</ele>
        <time>2022-03-08T09:17:16.735Z</time>
      </trkpt>
      <trkpt lat="42.56941" lon="23.99626">
        <ele>495.700896</ele>
        <time>2022-03-08T09:18:45.729Z</time>
      </trkpt>
      <trkpt lat="42.57118" lon="23.99473">
        <ele>497.042024</ele>
        <time>2022-03-08T09:19:54.727Z</time>
      </trkpt>
      <trkpt lat="42.57319" lon="23.99575">
        <ele>493.095411</ele>
        <time>2022-03-08T09:20:32.707Z</time>
      </trkpt>
      <trkpt lat="42.57478" lon="23.99782">
        <ele>495.544205</ele>
        <time>2022-03-08T09:21:27.700Z</time>
      </trkpt>
      <trkpt lat="42.57599" lon="23.99989">
        <ele>496.490028</ele>
        <time>2022-03-08T09:22:27.708Z</time>
      </trkpt>
      <trkpt lat="42.5767" lon="24.00243">
        <ele>499.228486</ele>
        <time>2022-03-08T09:23:38.728Z</time>
      </trkpt>
      <trkpt lat="42.57664" lon="24.00508">
        <ele>498.236848</ele>
        <time>2022-03-08T09:25:01.794Z</time>
      </trkpt>
      <trkpt lat="42.57715" lon="24.00744">
        <ele>501.655753</ele>
        <time>2022-03-08T09:26:18.732Z</time>
      </trkpt>
      <trkpt lat="42.57898" lon="24.00891">
        <ele>505.292384</ele>
        <time>2022-03-08T09:27:35.724Z</time>
      </trkpt>
      <trkpt lat="42.58061" lon="24.00753">
        <ele>503.907314</ele>
        <time>2022-03-08T09:28:29.722Z</time>
      </trkpt>
      <trkpt lat="42.58173" lon="24.00509">
        <ele>506.295358</ele>
        <time>2022-03-08T09:29:41.725Z</time>
      </trkpt>
      <trkpt lat="42.58304" lon="24.00316">
        <ele>507.534702</ele>
        <time>2022-03-08T09:30:41.746Z</time>
      </trkpt>
      <trkpt lat="42.58493" lon="24.00419">
        <ele>506.266759</ele>
        <time>2022-03-08T09:31:41.723Z</time>
      </trkpt>
      <trkpt lat="42.58624" lon="24.00624">
        <ele>510.676715</ele>
        <time>2022-03-08T09:32:48.722Z</time>
      </trkpt>
      <trkpt lat="42.58843" lon="24.00646">
        <ele>517.579439</ele>
        <time>2022-03-08T09:33:45.733Z</time>
      </trkpt>
      <trkpt lat="42.59057" lon="24.00592">
        <ele>510.421502</ele>
        <time>2022-03-08T09:34:42.739Z</time>
      </trkpt>
      <trkpt lat="42.5926" lon="24.00666">
        <ele>501.071304</ele>
        <time>2022-03-08T09:35:44.723Z</time>
      </trkpt>
      <trkpt lat="42.59461" lon="24.00705">
        <ele>504.30697</ele>
        <time>2022-03-08T09:36:41.729Z</time>
      </trkpt>
      <trkpt lat="42.59593" lon="24.00903">
        <ele>513.503602</ele>
        <time>2022-03-08T09:37:54.762Z</time>
      </trkpt>
      <trkpt lat="42.59785" lon="24.00994">
        <ele>511.84091</ele>
        <time>2022-03-08T09:39:05.722Z</time>
      </trkpt>
      <trkpt lat="42.59948" lon="24.01026">
        <ele>510.04529</ele>
        <time>2022-03-08T09:40:09.717Z</time>
      </trkpt>
      <trkpt lat="42.59956" lon="24.01007">
        <ele>507.871717</ele>
        <time>2022-03-08T10:04:31.783Z</time>
      </trkpt>
      <trkpt lat="42.60086" lon="24.00842">
        <ele>514.144138</ele>
        <time>2022-03-08T10:05:46.733Z</time>
      </trkpt>
      <trkpt lat="42.60169" lon="24.01036">
        <ele>532.226597</ele>
        <time>2022-03-08T10:07:45.767Z</time>
      </trkpt>
      <trkpt lat="42.60301" lon="24.01209">
        <ele>538.381379</ele>
        <time>2022-03-08T10:09:09.737Z</time>
      </trkpt>
      <trkpt lat="42.60473" lon="24.01303">
        <ele>533.762246</ele>
        <time>2022-03-08T10:10:19.746Z</time>
      </trkpt>
      <trkpt lat="42.60698" lon="24.01289">
        <ele>532.145388</ele>
        <time>2022-03-08T10:11:09.758Z</time>
      </trkpt>
      <trkpt lat="42.60868" lon="24.0117">
        <ele>533.297431</ele>
        <time>2022-03-08T10:12:07.726Z</time>
      </trkpt>
      <trkpt lat="42.61043" lon="24.01052">
        <ele>534.280399</ele>
        <time>2022-03-08T10:13:07.725Z</time>
      </trkpt>
      <trkpt lat="42.61225" lon="24.00912">
        <ele>535.523763</ele>
        <time>2022-03-08T10:14:04.767Z</time>
      </trkpt>
      <trkpt lat="42.61373" lon="24.0071">
        <ele>539.113784</ele>
        <time>2022-03-08T10:15:04.743Z</time>
      </trkpt>
      <trkpt lat="42.61497" lon="24.00525">
        <ele>539.696459</ele>
        <time>2022-03-08T10:16:02.736Z</time>
      </trkpt>
      <trkpt lat="42.61599" lon="24.00293">
        <ele>539.430593</ele>
        <time>2022-03-08T10:17:03.771Z</time>
      </trkpt>
      <trkpt lat="42.61721" lon="24.00065">
        <ele>541.256154</ele>
        <time>2022-03-08T10:18:00.738Z</time>
      </trkpt>
      <trkpt lat="42.61892" lon="23.99928">
        <ele>539.234117</ele>
        <time>2022-03-08T10:18:55.771Z</time>
      </trkpt>
      <trkpt lat="42.62087" lon="23.99826">
        <ele>536.394016</ele>
        <time>2022-03-08T10:19:42.722Z</time>
      </trkpt>
      <trkpt lat="42.62103" lon="23.99592">
        <ele>549.258171</ele>
        <time>2022-03-08T10:21:17.740Z</time>
      </trkpt>
      <trkpt lat="42.62125" lon="23.99327">
        <ele>560.250361</ele>
        <time>2022-03-08T10:23:18.733Z</time>
      </trkpt>
      <trkpt lat="42.62105" lon="23.99073">
        <ele>567.870948</ele>
        <time>2022-03-08T10:25:05.846Z</time>
      </trkpt>
      <trkpt lat="42.62138" lon="23.98797">
        <ele>563.76233</ele>
        <time>2022-03-08T10:26:19.733Z</time>
      </trkpt>
      <trkpt lat="42.62205" lon="23.98506">
        <ele>559.641771</ele>
        <time>2022-03-08T10:26:58.738Z</time>
      </trkpt>
      <trkpt lat="42.62273" lon="23.98192">
        <ele>559.102998</ele>
        <time>2022-03-08T10:27:38.745Z</time>
      </trkpt>
      <trkpt lat="42.62354" lon="23.9792">
        <ele>560.74915</ele>
        <time>2022-03-08T10:28:31.747Z</time>
      </trkpt>
      <trkpt lat="42.62439" lon="23.97659">
        <ele>564.017888</ele>
        <time>2022-03-08T10:29:35.747Z</time>
      </trkpt>
      <trkpt lat="42.62513" lon="23.97427">
        <ele>566.763658</ele>
        <time>2022-03-08T10:30:50.751Z</time>
      </trkpt>
      <trkpt lat="42.62567" lon="23.97173">
        <ele>575.759816</ele>
        <time>2022-03-08T10:32:22.746Z</time>
      </trkpt>
      <trkpt lat="42.62643" lon="23.96921">
        <ele>581.732437</ele>
        <time>2022-03-08T10:34:04.742Z</time>
      </trkpt>
      <trkpt lat="42.62775" lon="23.96709">
        <ele>579.467917</ele>
        <time>2022-03-08T10:35:07.735Z</time>
      </trkpt>
      <trkpt lat="42.62885" lon="23.96471">
        <ele>579.12276</ele>
        <time>2022-03-08T10:36:19.749Z</time>
      </trkpt>
      <trkpt lat="42.6299" lon="23.96249">
        <ele>585.708335</ele>
        <time>2022-03-08T10:37:47.742Z</time>
      </trkpt>
      <trkpt lat="42.631" lon="23.96031">
        <ele>592.226524</ele>
        <time>2022-03-08T10:39:33.741Z</time>
      </trkpt>
      <trkpt lat="42.632" lon="23.95823">
        <ele>599.224749</ele>
        <time>2022-03-08T10:41:20.739Z</time>
      </trkpt>
      <trkpt lat="42.6331" lon="23.95606">
        <ele>609.966618</ele>
        <time>2022-03-08T10:43:24.760Z</time>
      </trkpt>
      <trkpt lat="42.63444" lon="23.95432">
        <ele>615.573604</ele>
        <time>2022-03-08T10:45:18.759Z</time>
      </trkpt>
      <trkpt lat="42.63626" lon="23.95351">
        <ele>617.204037</ele>
        <time>2022-03-08T10:46:48.759Z</time>
      </trkpt>
      <trkpt lat="42.63795" lon="23.95221">
        <ele>619.549904</ele>
        <time>2022-03-08T10:48:10.747Z</time>
      </trkpt>
      <trkpt lat="42.639" lon="23.95009">
        <ele>627.64433</ele>
        <time>2022-03-08T10:49:35.791Z</time>
      </trkpt>
      <trkpt lat="42.63998" lon="23.94765">
        <ele>631.00342</ele>
        <time>2022-03-08T10:50:55.738Z</time>
      </trkpt>
      <trkpt lat="42.64106" lon="23.94534">
        <ele>630.843237</ele>
        <time>2022-03-08T10:52:07.739Z</time>
      </trkpt>
      <trkpt lat="42.6425" lon="23.94312">
        <ele>633.323137</ele>
        <time>2022-03-08T10:53:22.744Z</time>
      </trkpt>
      <trkpt lat="42.64359" lon="23.94083">
        <ele>633.408559</ele>
        <time>2022-03-08T10:54:25.756Z</time>
      </trkpt>
      <trkpt lat="42.64515" lon="23.9385">
        <ele>628.834005</ele>
        <time>2022-03-08T10:55:25.786Z</time>
      </trkpt>
      <trkpt lat="42.6462" lon="23.93618">
        <ele>625.644882</ele>
        <time>2022-03-08T10:56:12.746Z</time>
      </trkpt>
      <trkpt lat="42.64688" lon="23.9338">
        <ele>625.264397</ele>
        <time>2022-03-08T10:56:51.740Z</time>
      </trkpt>
      <trkpt lat="42.64818" lon="23.93127">
        <ele>623.277015</ele>
        <time>2022-03-08T10:57:34.742Z</time>
      </trkpt>
      <trkpt lat="42.64907" lon="23.92883">
        <ele>624.953102</ele>
        <time>2022-03-08T10:58:31.772Z</time>
      </trkpt>
      <trkpt lat="42.6501" lon="23.92658">
        <ele>628.252758</ele>
        <time>2022-03-08T10:59:36.743Z</time>
      </trkpt>
      <trkpt lat="42.65144" lon="23.92473">
        <ele>629.109509</ele>
        <time>2022-03-08T11:00:49.747Z</time>
      </trkpt>
      <trkpt lat="42.65211" lon="23.92197">
        <ele>635.476638</ele>
        <time>2022-03-08T11:02:09.749Z</time>
      </trkpt>
      <trkpt lat="42.65305" lon="23.91974">
        <ele>642.491641</ele>
        <time>2022-03-08T11:03:27.780Z</time>
      </trkpt>
      <trkpt lat="42.65474" lon="23.91832">
        <ele>642.504188</ele>
        <time>2022-03-08T11:05:08.746Z</time>
      </trkpt>
      <trkpt lat="42.65632" lon="23.91693">
        <ele>648.082839</ele>
        <time>2022-03-08T11:06:33.783Z</time>
      </trkpt>
      <trkpt lat="42.65643" lon="23.91433">
        <ele>647.078426</ele>
        <time>2022-03-08T11:07:54.754Z</time>
      </trkpt>
      <trkpt lat="42.65538" lon="23.91212">
        <ele>648.644389</ele>
        <time>2022-03-08T11:09:16.758Z</time>
      </trkpt>
      <trkpt lat="42.65497" lon="23.90969">
        <ele>656.438786</ele>
        <time>2022-03-08T11:10:50.756Z</time>
      </trkpt>
      <trkpt lat="42.65491" lon="23.90708">
        <ele>665.738883</ele>
        <time>2022-03-08T11:13:00.766Z</time>
      </trkpt>
      <trkpt lat="42.65465" lon="23.90463">
        <ele>675.055549</ele>
        <time>2022-03-08T11:15:08.766Z</time>
      </trkpt>
      <trkpt lat="42.65509" lon="23.90205">
        <ele>688.782882</ele>
        <time>2022-03-08T11:17:14.762Z</time>
      </trkpt>
      <trkpt lat="42.65581" lon="23.89973">
        <ele>698.078932</ele>
        <time>2022-03-08T11:19:13.764Z</time>
      </trkpt>
      <trkpt lat="42.65587" lon="23.897">
        <ele>695.976253</ele>
        <time>2022-03-08T11:20:47.758Z</time>
      </trkpt>
      <trkpt lat="42.65541" lon="23.89452">
        <ele>690.102661</ele>
        <time>2022-03-08T11:21:46.758Z</time>
      </trkpt>
      <trkpt lat="42.65498" lon="23.89194">
        <ele>700.475132</ele>
        <time>2022-03-08T11:23:13.752Z</time>
      </trkpt>
      <trkpt lat="42.65376" lon="23.88994">
        <ele>714.244479</ele>
        <time>2022-03-08T11:24:45.759Z</time>
      </trkpt>
      <trkpt lat="42.65227" lon="23.88823">
        <ele>712.592017</ele>
        <time>2022-03-08T11:26:28.759Z</time>
      </trkpt>
      <trkpt lat="42.65088" lon="23.88641">
        <ele>726.996007</ele>
        <time>2022-03-08T11:28:43.750Z</time>
      </trkpt>
      <trkpt lat="42.64932" lon="23.88526">
        <ele>734.690292</ele>
        <time>2022-03-08T11:30:42.748Z</time>
      </trkpt>
      <trkpt lat="42.64766" lon="23.88389">
        <ele>748.568709</ele>
        <time>2022-03-08T11:32:41.758Z</time>
      </trkpt>
      <trkpt lat="42.64599" lon="23.88269">
        <ele>759.252585</ele>
        <time>2022-03-08T11:34:40.823Z</time>
      </trkpt>
      <trkpt lat="42.6445" lon="23.88106">
        <ele>774.123714</ele>
        <time>2022-03-08T11:37:10.767Z</time>
      </trkpt>
      <trkpt lat="42.64369" lon="23.87885">
        <ele>783.584138</ele>
        <time>2022-03-08T11:39:33.804Z</time>
      </trkpt>
      <trkpt lat="42.64278" lon="23.87653">
        <ele>786.251697</ele>
        <time>2022-03-08T11:41:35.768Z</time>
      </trkpt>
      <trkpt lat="42.64148" lon="23.87478">
        <ele>796.947714</ele>
        <time>2022-03-08T11:43:48.797Z</time>
      </trkpt>
      <trkpt lat="42.64106" lon="23.87239">
        <ele>813.313315</ele>
        <time>2022-03-08T11:46:09.762Z</time>
      </trkpt>
      <trkpt lat="42.6403" lon="23.87001">
        <ele>824.713468</ele>
        <time>2022-03-08T11:48:43.754Z</time>
      </trkpt>
      <trkpt lat="42.64005" lon="23.86763">
        <ele>832.145286</ele>
        <time>2022-03-08T11:51:20.781Z</time>
      </trkpt>
      <trkpt lat="42.6396" lon="23.86513">
        <ele>839.961326</ele>
        <time>2022-03-08T11:53:55.771Z</time>
      </trkpt>
      <trkpt lat="42.63888" lon="23.86266">
        <ele>837.78593</ele>
        <time>2022-03-08T11:55:19.776Z</time>
      </trkpt>
      <trkpt lat="42.63907" lon="23.85912">
        <ele>826.24324</ele>
        <time>2022-03-08T11:56:02.758Z</time>
      </trkpt>
      <trkpt lat="42.64067" lon="23.85568">
        <ele>809.364092</ele>
        <time>2022-03-08T11:56:40.782Z</time>
      </trkpt>
      <trkpt lat="42.64319" lon="23.85569">
        <ele>800.673851</ele>
        <time>2022-03-08T11:57:12.764Z</time>
      </trkpt>
      <trkpt lat="42.64403" lon="23.85364">
        <ele>797.152233</ele>
        <time>2022-03-08T11:58:14.794Z</time>
      </trkpt>
      <trkpt lat="42.64499" lon="23.85131">
        <ele>796.882118</ele>
        <time>2022-03-08T11:58:57.782Z</time>
      </trkpt>
      <trkpt lat="42.64648" lon="23.84835">
        <ele>780.12525</ele>
        <time>2022-03-08T11:59:30.775Z</time>
      </trkpt>
      <trkpt lat="42.64686" lon="23.84542">
        <ele>772.153745</ele>
        <time>2022-03-08T12:00:17.774Z</time>
      </trkpt>
      <trkpt lat="42.64704" lon="23.84282">
        <ele>775.13981</ele>
        <time>2022-03-08T12:00:57.764Z</time>
      </trkpt>
      <trkpt lat="42.64713" lon="23.83995">
        <ele>774.867386</ele>
        <time>2022-03-08T12:01:34.765Z</time>
      </trkpt>
      <trkpt lat="42.64701" lon="23.83712">
        <ele>774.504338</ele>
        <time>2022-03-08T12:02:53.802Z</time>
      </trkpt>
      <trkpt lat="42.64757" lon="23.83441">
        <ele>773.094867</ele>
        <time>2022-03-08T12:03:59.763Z</time>
      </trkpt>
      <trkpt lat="42.64887" lon="23.8315">
        <ele>763.67941</ele>
        <time>2022-03-08T12:04:29.775Z</time>
      </trkpt>
      <trkpt lat="42.64953" lon="23.82821">
        <ele>750.074853</ele>
        <time>2022-03-08T12:04:59.776Z</time>
      </trkpt>
      <trkpt lat="42.65021" lon="23.82564">
        <ele>751.790847</ele>
        <time>2022-03-08T12:05:56.778Z</time>
      </trkpt>
      <trkpt lat="42.65093" lon="23.82301">
        <ele>762.020967</ele>
        <time>2022-03-08T12:07:34.801Z</time>
      </trkpt>
      <trkpt lat="42.65279" lon="23.82307">
        <ele>764.323884</ele>
        <time>2022-03-08T12:08:37.807Z</time>
      </trkpt>
      <trkpt lat="42.65485" lon="23.82325">
        <ele>756.812829</ele>
        <time>2022-03-08T12:09:30.781Z</time>
      </trkpt>
      <trkpt lat="42.65591" lon="23.82136">
        <ele>764.859258</ele>
        <time>2022-03-08T12:10:48.792Z</time>
      </trkpt>
      <trkpt lat="42.6566" lon="23.82005">
        <ele>774.096053</ele>
        <time>2022-03-08T12:39:29.794Z</time>
      </trkpt>
      <trkpt lat="42.65573" lon="23.81714">
        <ele>762.605016</ele>
        <time>2022-03-08T12:40:15.758Z</time>
      </trkpt>
      <trkpt lat="42.65484" lon="23.81393">
        <ele>742.285738</ele>
        <time>2022-03-08T12:40:46.796Z</time>
      </trkpt>
      <trkpt lat="42.65407" lon="23.81111">
        <ele>729.430298</ele>
        <time>2022-03-08T12:41:12.807Z</time>
      </trkpt>
      <trkpt lat="42.65259" lon="23.80804">
        <ele>721.460996</ele>
        <time>2022-03-08T12:41:50.803Z</time>
      </trkpt>
      <trkpt lat="42.65142" lon="23.80519">
        <ele>715.079347</ele>
        <time>2022-03-08T12:42:30.776Z</time>
      </trkpt>
      <trkpt lat="42.65013" lon="23.80229">
        <ele>707.089906</ele>
        <time>2022-03-08T12:43:08.812Z</time>
      </trkpt>
      <trkpt lat="42.65035" lon="23.79836">
        <ele>692.107493</ele>
        <time>2022-03-08T12:43:48.776Z</time>
      </trkpt>
      <trkpt lat="42.651" lon="23.79525">
        <ele>687.906216</ele>
        <time>2022-03-08T12:44:26.776Z</time>
      </trkpt>
      <trkpt lat="42.65154" lon="23.79249">
        <ele>689.321813</ele>
        <time>2022-03-08T12:45:22.779Z</time>
      </trkpt>
      <trkpt lat="42.65238" lon="23.78967">
        <ele>683.034553</ele>
        <time>2022-03-08T12:46:05.768Z</time>
      </trkpt>
      <trkpt lat="42.65361" lon="23.78717">
        <ele>679.498092</ele>
        <time>2022-03-08T12:46:53.779Z</time>
      </trkpt>
      <trkpt lat="42.65507" lon="23.78503">
        <ele>675.223286</ele>
        <time>2022-03-08T12:47:42.771Z</time>
      </trkpt>
      <trkpt lat="42.65641" lon="23.78279">
        <ele>671.646454</ele>
        <time>2022-03-08T12:48:23.791Z</time>
      </trkpt>
      <trkpt lat="42.6575" lon="23.78062">
        <ele>668.704623</ele>
        <time>2022-03-08T12:49:03.795Z</time>
      </trkpt>
      <trkpt lat="42.65892" lon="23.77881">
        <ele>663.685142</ele>
        <time>2022-03-08T12:49:44.827Z</time>
      </trkpt>
      <trkpt lat="42.65999" lon="23.77618">
        <ele>658.560572</ele>
        <time>2022-03-08T12:50:24.756Z</time>
      </trkpt>
      <trkpt lat="42.66133" lon="23.7741">
        <ele>655.792259</ele>
        <time>2022-03-08T12:51:06.778Z</time>
      </trkpt>
      <trkpt lat="42.663" lon="23.77266">
        <ele>654.214046</ele>
        <time>2022-03-08T12:51:47.797Z</time>
      </trkpt>
      <trkpt lat="42.66463" lon="23.77125">
        <ele>656.510375</ele>
        <time>2022-03-08T12:52:40.766Z</time>
      </trkpt>
      <trkpt lat="42.66651" lon="23.76962">
        <ele>654.976127</ele>
        <time>2022-03-08T12:53:32.802Z</time>
      </trkpt>
      <trkpt lat="42.66834" lon="23.76832">
        <ele>651.825704</ele>
        <time>2022-03-08T12:54:21.776Z</time>
      </trkpt>
      <trkpt lat="42.66956" lon="23.76585">
        <ele>651.312213</ele>
        <time>2022-03-08T12:55:16.771Z</time>
      </trkpt>
      <trkpt lat="42.67108" lon="23.7637">
        <ele>647.399391</ele>
        <time>2022-03-08T12:56:05.772Z</time>
      </trkpt>
      <trkpt lat="42.6722" lon="23.76123">
        <ele>639.861885</ele>
        <time>2022-03-08T12:56:51.773Z</time>
      </trkpt>
      <trkpt lat="42.67319" lon="23.75837">
        <ele>639.189104</ele>
        <time>2022-03-08T12:57:47.776Z</time>
      </trkpt>
      <trkpt lat="42.67409" lon="23.75588">
        <ele>642.479114</ele>
        <time>2022-03-08T12:58:44.784Z</time>
      </trkpt>
      <trkpt lat="42.67504" lon="23.75315">
        <ele>642.084706</ele>
        <time>2022-03-08T12:59:44.770Z</time>
      </trkpt>
      <trkpt lat="42.67608" lon="23.75024">
        <ele>640.941771</ele>
        <time>2022-03-08T13:00:41.786Z</time>
      </trkpt>
      <trkpt lat="42.67715" lon="23.74722">
        <ele>638.267586</ele>
        <time>2022-03-08T13:01:41.809Z</time>
      </trkpt>
      <trkpt lat="42.67813" lon="23.74443">
        <ele>636.37473</ele>
        <time>2022-03-08T13:02:38.781Z</time>
      </trkpt>
      <trkpt lat="42.67919" lon="23.74146">
        <ele>634.975036</ele>
        <time>2022-03-08T13:03:37.785Z</time>
      </trkpt>
      <trkpt lat="42.68013" lon="23.73877">
        <ele>635.730201</ele>
        <time>2022-03-08T13:04:34.787Z</time>
      </trkpt>
      <trkpt lat="42.68099" lon="23.73632">
        <ele>636.118831</ele>
        <time>2022-03-08T13:05:31.774Z</time>
      </trkpt>
      <trkpt lat="42.68186" lon="23.73386">
        <ele>641.280034</ele>
        <time>2022-03-08T13:06:36.818Z</time>
      </trkpt>
      <trkpt lat="42.68271" lon="23.73155">
        <ele>641.341274</ele>
        <time>2022-03-08T13:07:38.794Z</time>
      </trkpt>
      <trkpt lat="42.68357" lon="23.72913">
        <ele>641.331728</ele>
        <time>2022-03-08T13:08:40.801Z</time>
      </trkpt>
      <trkpt lat="42.68444" lon="23.72672">
        <ele>645.573789</ele>
        <time>2022-03-08T13:09:47.784Z</time>
      </trkpt>
      <trkpt lat="42.68493" lon="23.72402">
        <ele>648.411985</ele>
        <time>2022-03-08T13:10:58.790Z</time>
      </trkpt>
      <trkpt lat="42.6849" lon="23.72142">
        <ele>650.762735</ele>
        <time>2022-03-08T13:11:55.789Z</time>
      </trkpt>
      <trkpt lat="42.68517" lon="23.71849">
        <ele>649.7031</ele>
        <time>2022-03-08T13:12:56.808Z</time>
      </trkpt>
      <trkpt lat="42.68558" lon="23.71577">
        <ele>644.565379</ele>
        <time>2022-03-08T13:13:40.798Z</time>
      </trkpt>
      <trkpt lat="42.68641" lon="23.71356">
        <ele>642.672974</ele>
        <time>2022-03-08T13:14:18.781Z</time>
      </trkpt>
      <trkpt lat="42.68759" lon="23.71143">
        <ele>642.379717</ele>
        <time>2022-03-08T13:14:59.805Z</time>
      </trkpt>
      <trkpt lat="42.68909" lon="23.70997">
        <ele>641.249561</ele>
        <time>2022-03-08T13:15:37.795Z</time>
      </trkpt>
      <trkpt lat="42.69097" lon="23.70878">
        <ele>639.394694</ele>
        <time>2022-03-08T13:16:17.792Z</time>
      </trkpt>
      <trkpt lat="42.69232" lon="23.70696">
        <ele>636.400617</ele>
        <time>2022-03-08T13:16:56.776Z</time>
      </trkpt>
      <trkpt lat="42.69372" lon="23.70477">
        <ele>634.185576</ele>
        <time>2022-03-08T13:17:36.782Z</time>
      </trkpt>
      <trkpt lat="42.69494" lon="23.70239">
        <ele>629.313004</ele>
        <time>2022-03-08T13:18:14.784Z</time>
      </trkpt>
      <trkpt lat="42.69648" lon="23.69968">
        <ele>624.316053</ele>
        <time>2022-03-08T13:18:54.788Z</time>
      </trkpt>
      <trkpt lat="42.69719" lon="23.69693">
        <ele>618.783981</ele>
        <time>2022-03-08T13:19:32.786Z</time>
      </trkpt>
      <trkpt lat="42.69817" lon="23.6941">
        <ele>609.533485</ele>
        <time>2022-03-08T13:20:10.810Z</time>
      </trkpt>
      <trkpt lat="42.69928" lon="23.69403">
        <ele>608.504097</ele>
        <time>2022-03-08T13:21:01.798Z</time>
      </trkpt>
      <trkpt lat="42.70057" lon="23.69619">
        <ele>615.754849</ele>
        <time>2022-03-08T13:21:58.789Z</time>
      </trkpt>
      <trkpt lat="42.7027" lon="23.69626">
        <ele>615.685057</ele>
        <time>2022-03-08T13:22:58.837Z</time>
      </trkpt>
      <trkpt lat="42.70431" lon="23.69558">
        <ele>619.604786</ele>
        <time>2022-03-08T13:24:06.828Z</time>
      </trkpt>
      <trkpt lat="42.70524" lon="23.6976">
        <ele>627.249624</ele>
        <time>2022-03-08T13:25:23.798Z</time>
      </trkpt>
      <trkpt lat="42.70582" lon="23.70013">
        <ele>632.402981</ele>
        <time>2022-03-08T13:26:37.778Z</time>
      </trkpt>
      <trkpt lat="42.7063" lon="23.70268">
        <ele>641.708359</ele>
        <time>2022-03-08T13:28:42.813Z</time>
      </trkpt>
      <trkpt lat="42.70685" lon="23.70509">
        <ele>658.558048</ele>
        <time>2022-03-08T13:30:57.795Z</time>
      </trkpt>
      <trkpt lat="42.70732" lon="23.70744">
        <ele>673.990512</ele>
        <time>2022-03-08T13:33:13.847Z</time>
      </trkpt>
      <trkpt lat="42.70784" lon="23.71003">
        <ele>679.074782</ele>
        <time>2022-03-08T13:35:12.795Z</time>
      </trkpt>
      <trkpt lat="42.70838" lon="23.7127">
        <ele>671.860957</ele>
        <time>2022-03-08T13:36:17.828Z</time>
      </trkpt>
      <trkpt lat="42.7091" lon="23.71563">
        <ele>668.620743</ele>
        <time>2022-03-08T13:36:57.820Z</time>
      </trkpt>
      <trkpt lat="42.71004" lon="23.71918">
        <ele>653.181862</ele>
        <time>2022-03-08T13:37:35.796Z</time>
      </trkpt>
      <trkpt lat="42.71159" lon="23.72104">
        <ele>637.820337</ele>
        <time>2022-03-08T13:38:17.792Z</time>
      </trkpt>
      <trkpt lat="42.71351" lon="23.72018">
        <ele>637.266761</ele>
        <time>2022-03-08T13:39:08.805Z</time>
      </trkpt>
      <trkpt lat="42.71562" lon="23.7197">
        <ele>638.357384</ele>
        <time>2022-03-08T13:40:10.770Z</time>
      </trkpt>
      <trkpt lat="42.71723" lon="23.71825">
        <ele>641.583342</ele>
        <time>2022-03-08T13:41:15.810Z</time>
      </trkpt>
      <trkpt lat="42.71895" lon="23.71899">
        <ele>645.956024</ele>
        <time>2022-03-08T13:42:53.806Z</time>
      </trkpt>
      <trkpt lat="42.71786" lon="23.72081">
        <ele>641.913984</ele>
        <time>2022-03-08T13:43:43.823Z</time>
      </trkpt>
      <trkpt lat="42.71716" lon="23.72322">
        <ele>648.775044</ele>
        <time>2022-03-08T13:45:03.826Z</time>
      </trkpt>
      <trkpt lat="42.71732" lon="23.72554">
        <ele>655.652181</ele>
        <time>2022-03-08T13:46:41.807Z</time>
      </trkpt>
      <trkpt lat="42.71853" lon="23.72725">
        <ele>660.697779</ele>
        <time>2022-03-08T13:48:52.808Z</time>
      </trkpt>
      <trkpt lat="42.71915" lon="23.72821">
        <ele>660.697779</ele>
        <time>2022-03-08T13:54:37.061Z</time>
      </trkpt>
    </trkseg>
  </trk>
</gpx>